createdAt,value
2023-03-07T00:02:19.872Z,26.20
2023-03-07T00:07:22.619Z,23.13
2023-03-07T00:12:25.459Z,25.30
2023-03-07T00:17:29.683Z,23.83
2023-03-07T00:22:32.413Z,23.42
2023-03-07T00:27:35.471Z,23.85
2023-03-07T00:32:39.674Z,22.38
2023-03-07T00:37:42.484Z,21.45
2023-03-07T00:42:45.425Z,22.73
2023-03-07T00:47:49.765Z,22.92
2023-03-07T00:52:52.534Z,22.52
2023-03-07T00:57:55.476Z,22.52
2023-03-07T01:03:02.098Z,21.92
2023-03-07T01:08:04.976Z,21.52
2023-03-07T01:13:09.869Z,20.48
2023-03-07T01:18:14.670Z,19.88
2023-03-07T01:23:17.637Z,20.05
2023-03-07T01:28:20.582Z,18.17
2023-03-07T01:33:25.122Z,18.80
2023-03-07T01:38:33.785Z,17.55
2023-03-07T01:43:38.895Z,15.73
2023-03-07T01:48:51.776Z,16.50
2023-03-07T01:53:56.681Z,16.77
2023-03-07T01:58:59.678Z,17.00
2023-03-07T02:04:10.379Z,15.68
2023-03-07T02:09:17.969Z,14.45
2023-03-07T02:14:20.781Z,14.73
2023-03-07T02:19:38.445Z,11.65
2023-03-07T02:24:49.294Z,13.38
2023-03-07T02:29:53.867Z,14.55
2023-03-07T02:34:57.287Z,12.25
2023-03-07T02:40:05.194Z,12.70
2023-03-07T02:45:12.485Z,11.98
2023-03-07T02:50:18.261Z,13.32
2023-03-07T02:55:25.264Z,12.65
2023-03-07T03:00:37.038Z,13.65
2023-03-07T03:05:40.104Z,15.13
2023-03-07T03:10:43.057Z,13.95
2023-03-07T03:15:48.177Z,13.93
2023-03-07T03:20:51.336Z,13.65
2023-03-07T03:25:59.321Z,15.15
2023-03-07T03:31:07.242Z,13.80
2023-03-07T03:36:11.882Z,15.87
2023-03-07T03:41:16.946Z,15.68
2023-03-07T03:46:22.563Z,15.88
2023-03-07T03:51:26.200Z,16.40
2023-03-07T03:56:30.664Z,18.13
2023-03-07T04:01:35.016Z,18.70
2023-03-07T04:06:38.044Z,17.63
2023-03-07T04:11:40.958Z,19.70
2023-03-07T04:16:45.236Z,18.13
2023-03-07T04:21:48.096Z,19.30
2023-03-07T04:26:52.502Z,19.40
2023-03-07T04:31:57.482Z,21.17
2023-03-07T04:37:00.445Z,17.65
2023-03-07T04:42:03.341Z,19.60
2023-03-07T04:47:12.314Z,20.10
2023-03-07T04:52:15.182Z,21.80
2023-03-07T04:57:18.327Z,21.60
2023-03-07T05:02:22.915Z,21.42
2023-03-07T05:07:28.997Z,22.63
2023-03-07T05:12:32.257Z,19.90
2023-03-07T05:17:38.108Z,19.95
2023-03-07T05:22:41.145Z,20.83
2023-03-07T05:27:44.369Z,21.27
2023-03-07T05:32:48.887Z,19.48
2023-03-07T05:37:52.516Z,18.67
2023-03-07T05:42:56.019Z,18.80
2023-03-07T05:48:00.733Z,20.08
2023-03-07T05:53:04.395Z,21.90
2023-03-07T05:58:07.937Z,20.00
2023-03-07T06:03:12.276Z,19.52
2023-03-07T06:08:15.892Z,18.38
2023-03-07T06:13:21.405Z,18.75
2023-03-07T06:18:26.404Z,15.25
2023-03-07T06:23:31.331Z,16.75
2023-03-07T06:28:37.422Z,15.43
2023-03-07T06:33:42.077Z,16.08
2023-03-07T06:38:45.289Z,16.83
2023-03-07T06:43:52.492Z,17.02
2023-03-07T06:49:01.025Z,15.57
2023-03-07T06:54:04.489Z,15.88
2023-03-07T06:59:07.968Z,15.98
2023-03-07T07:04:13.961Z,17.80
2023-03-07T07:09:19.686Z,16.23
2023-03-07T07:14:23.605Z,13.98
2023-03-07T07:19:29.166Z,15.35
2023-03-07T07:24:35.052Z,14.15
2023-03-07T07:29:37.848Z,14.32
2023-03-07T07:34:43.977Z,12.30
2023-03-07T07:39:47.164Z,11.00
2023-03-07T07:44:50.452Z,14.60
2023-03-07T07:49:54.697Z,12.60
2023-03-07T07:54:58.046Z,14.38
2023-03-07T08:00:01.051Z,14.70
2023-03-07T08:05:08.103Z,13.50
2023-03-07T08:10:13.475Z,14.03
2023-03-07T08:15:19.940Z,13.27
2023-03-07T08:20:25.654Z,14.15
2023-03-07T08:25:28.556Z,12.77
2023-03-07T08:30:34.018Z,12.95
2023-03-07T08:35:40.101Z,12.18
2023-03-07T08:40:44.504Z,12.65
2023-03-07T08:45:51.392Z,13.25
2023-03-07T08:50:55.849Z,13.77
2023-03-07T08:56:00.820Z,12.13
2023-03-07T09:01:05.061Z,11.90
2023-03-07T09:06:10.706Z,11.27
2023-03-07T09:11:13.879Z,11.30
2023-03-07T09:16:16.737Z,11.90
2023-03-07T09:21:21.407Z,14.23
2023-03-07T09:26:25.076Z,12.00
2023-03-07T09:31:27.912Z,13.55
2023-03-07T09:36:33.045Z,11.80
2023-03-07T09:41:57.002Z,12.82
2023-03-07T09:47:13.430Z,11.50
2023-03-07T09:52:21.162Z,10.55
2023-03-07T09:57:27.552Z,14.63
2023-03-07T10:02:36.157Z,12.65
2023-03-07T10:07:41.158Z,12.75
2023-03-07T10:12:57.969Z,12.10
2023-03-07T10:18:18.045Z,12.55
2023-03-07T10:23:44.350Z,11.48
2023-03-07T10:28:49.269Z,11.00
2023-03-07T10:33:54.893Z,12.10
2023-03-07T10:44:16.105Z,10.00
2023-03-07T10:49:24.110Z,10.43
2023-03-07T10:54:33.180Z,10.35
2023-03-07T10:59:37.314Z,8.95
2023-03-07T11:04:48.151Z,10.38
2023-03-07T11:09:52.381Z,9.77
2023-03-07T11:14:57.984Z,10.45
2023-03-07T11:20:00.798Z,9.77
2023-03-07T11:25:15.749Z,8.95
2023-03-07T11:30:26.241Z,9.55
2023-03-07T11:35:44.074Z,10.07
2023-03-07T11:40:57.306Z,10.45
2023-03-07T11:46:07.040Z,9.05
2023-03-07T11:51:31.744Z,10.40
2023-03-07T11:56:40.869Z,9.63
2023-03-07T12:01:48.866Z,9.80
2023-03-07T12:07:02.678Z,9.43
2023-03-07T12:12:21.536Z,8.80
2023-03-07T12:17:40.132Z,8.43
2023-03-07T12:22:54.149Z,8.50
2023-03-07T12:28:06.933Z,7.32
2023-03-07T12:33:19.029Z,7.43
2023-03-07T12:38:36.570Z,7.35
2023-03-07T12:43:47.437Z,7.50
2023-03-07T12:48:56.188Z,7.05
2023-03-07T12:54:04.545Z,8.80
2023-03-07T12:59:13.879Z,7.32
2023-03-07T13:04:19.407Z,7.30
2023-03-07T13:09:25.570Z,7.30
2023-03-07T13:14:45.411Z,7.88
2023-03-07T13:19:54.524Z,10.13
2023-03-07T13:24:59.162Z,8.35
2023-03-07T13:30:22.980Z,6.45
2023-03-07T13:35:53.566Z,5.65
2023-03-07T13:40:58.579Z,7.60
2023-03-07T13:46:04.272Z,6.35
2023-03-07T13:51:09.129Z,7.30
2023-03-07T13:56:25.214Z,7.32
2023-03-07T14:01:33.726Z,8.50
2023-03-07T14:06:41.749Z,7.85
2023-03-07T14:11:54.644Z,11.45
2023-03-07T14:17:17.212Z,7.47
2023-03-07T14:22:34.560Z,8.65
2023-03-07T14:27:51.402Z,5.90
2023-03-07T14:32:56.766Z,6.63
2023-03-07T14:37:59.562Z,5.63
2023-03-07T14:43:27.109Z,7.03
2023-03-07T14:49:01.364Z,6.50
2023-03-07T14:54:09.208Z,7.47
2023-03-07T14:59:26.306Z,7.38
2023-03-07T15:04:35.737Z,6.63
2023-03-07T15:09:38.705Z,7.43
2023-03-07T15:14:45.467Z,6.50
2023-03-07T15:19:53.714Z,6.68
2023-03-07T15:24:57.534Z,9.38
2023-03-07T15:30:02.172Z,9.38
2023-03-07T15:35:17.767Z,13.38
2023-03-07T15:40:28.197Z,9.00
2023-03-07T15:45:33.295Z,8.65
2023-03-07T15:50:38.821Z,9.93
2023-03-07T15:55:56.813Z,8.60
2023-03-07T16:01:07.816Z,10.68
2023-03-07T16:06:41.257Z,9.50
2023-03-07T16:11:46.052Z,13.90
2023-03-07T16:16:49.454Z,9.05
2023-03-07T16:21:54.606Z,10.93
2023-03-07T16:26:57.920Z,8.82
2023-03-07T16:32:01.984Z,12.07
2023-03-07T16:37:06.504Z,10.18
2023-03-07T16:42:17.288Z,12.35
2023-03-07T16:47:20.671Z,11.23
2023-03-07T16:52:25.807Z,12.95
2023-03-07T16:57:28.673Z,17.67
2023-03-07T17:02:32.749Z,12.73
2023-03-07T17:07:37.324Z,17.77
2023-03-07T17:12:42.523Z,10.57
2023-03-07T17:17:46.367Z,10.60
2023-03-07T17:22:52.074Z,9.40
2023-03-07T17:28:00.598Z,7.05
2023-03-07T17:33:03.808Z,5.05
2023-03-07T17:38:08.276Z,4.32
2023-03-07T17:43:11.723Z,4.80
2023-03-07T17:48:14.593Z,6.63
2023-03-07T17:53:18.881Z,7.78
2023-03-07T17:58:21.870Z,6.60
2023-03-07T18:03:24.823Z,6.85
2023-03-07T18:08:29.388Z,9.75
2023-03-07T18:13:33.402Z,11.43
2023-03-07T18:18:40.201Z,17.05
2023-03-07T18:23:48.349Z,10.00
2023-03-07T18:28:53.303Z,11.63
2023-03-07T18:33:56.438Z,13.60
2023-03-07T18:39:01.109Z,14.05
2023-03-07T18:44:05.514Z,19.17
2023-03-07T18:49:08.374Z,14.88
2023-03-07T18:54:14.126Z,9.90
2023-03-07T18:59:17.779Z,8.88
2023-03-07T19:04:21.392Z,11.98
2023-03-07T19:09:26.669Z,12.20
2023-03-07T19:14:29.885Z,14.38
2023-03-07T19:19:33.477Z,13.65
2023-03-07T19:24:38.082Z,19.02
2023-03-07T19:29:40.998Z,15.65
2023-03-07T19:34:44.406Z,12.07
2023-03-07T19:39:53.941Z,10.15
2023-03-07T19:44:56.900Z,10.75
2023-03-07T19:49:59.727Z,10.45
2023-03-07T19:55:06.484Z,11.18
2023-03-07T20:00:12.652Z,9.83
2023-03-07T20:05:17.256Z,8.07
2023-03-07T20:10:23.678Z,8.23
2023-03-07T20:15:28.739Z,11.23
2023-03-07T20:20:36.664Z,8.25
2023-03-07T20:30:47.747Z,4.63
2023-03-07T20:36:02.168Z,4.18
2023-03-07T20:41:11.004Z,5.50
2023-03-07T20:46:19.765Z,5.05
2023-03-07T20:51:28.463Z,32.33
2023-03-07T20:56:36.274Z,24.20
2023-03-07T21:01:42.071Z,22.25
2023-03-07T21:06:50.524Z,10.18
2023-03-07T21:11:56.473Z,8.90
2023-03-07T21:17:03.173Z,11.52
2023-03-07T21:22:07.837Z,10.48
2023-03-07T21:27:14.687Z,12.67
2023-03-07T21:32:18.289Z,21.13
2023-03-07T21:37:22.128Z,8.18
2023-03-07T21:42:27.722Z,10.63
2023-03-07T21:47:31.109Z,12.82
2023-03-07T21:52:34.045Z,7.22
2023-03-07T21:57:38.742Z,7.22
2023-03-07T22:02:41.715Z,5.55
2023-03-07T22:07:44.944Z,5.15
2023-03-07T22:12:49.704Z,6.88
2023-03-07T22:17:52.608Z,4.38
2023-03-07T22:22:55.387Z,4.72
2023-03-07T22:27:59.658Z,6.63
2023-03-07T22:33:03.022Z,5.63
2023-03-07T22:38:06.107Z,5.50
2023-03-07T22:43:12.617Z,5.47
2023-03-07T22:48:16.660Z,5.13
2023-03-07T22:53:19.668Z,5.20
2023-03-07T22:58:24.692Z,5.57
2023-03-07T23:03:27.484Z,6.03
2023-03-07T23:08:30.400Z,6.57
2023-03-07T23:13:35.152Z,5.50
2023-03-07T23:18:39.034Z,6.38
2023-03-07T23:23:42.888Z,6.47
2023-03-07T23:28:47.320Z,7.40
2023-03-07T23:33:50.276Z,7.25
2023-03-07T23:38:53.265Z,4.60
2023-03-07T23:44:00.069Z,4.55
2023-03-07T23:49:02.962Z,5.68
2023-03-07T23:54:05.739Z,6.50
2023-03-07T23:59:10.215Z,6.00
